Cesky Tesin, Czech Republic
Current Conditions -  °F | °C
As of 2:30 PM on Tuesday 21 Oct 2014 (Local Time) from LKMT Reporting Station
Scattered Clouds Scattered Clouds  
Wind Chill: 59°   Ceiling: Unl
Heat Index: 59°   Visibility: 6mi
Dew Point: 48°   Wind: 12mph
Humidity: 67%   Direction: 220°SW
Pressure: 29.8"   Gusts: NA
Location:  49.74°N, 18.62°E
Report Text: LKMT 211230Z 22010KT 9999 SCT026 15/09 Q1009 NOSIG
Loading
Personal Weather Stations






























Interactive Weather Map
Tropical Storm Tracking
New forecast layout! Learn more

10-Day Weather Forecast

Advertisements
Track Severe Weather on mobile